Time;durP1;ratioP1;P1;durP2;ratioP2;P2;SDS_P1;SDS_P2;PMS_P1;PMS_P2;Temp;Humidity;BMP_temperature;BMP_pressure;BME280_temperature;BME280_humidity;BME280_pressure;Samples;Min_cycle;Max_cycle;Signal;HPM_P1;HPM_P2
2023/01/14 00:01:47;;;;;;;22.45;5.75;;;;;;;3.90;100.00;101506.03;5054145;28;20024;-77
2023/01/14 00:04:12;;;;;;;22.40;4.75;;;;;;;3.94;100.00;101515.53;5071190;28;20055;-77
2023/01/14 00:06:38;;;;;;;19.70;4.40;;;;;;;3.92;100.00;101524.97;5072103;28;20103;-77
2023/01/14 00:09:06;;;;;;;22.40;4.85;;;;;;;3.89;100.00;101524.94;5071842;28;20020;-77
2023/01/14 00:11:46;;;;;;;20.25;4.38;;;;;;;3.87;100.00;101526.59;5070864;28;20060;-77
2023/01/14 00:14:14;;;;;;;19.60;4.57;;;;;;;3.90;100.00;101536.13;5071940;28;20103;-77
2023/01/14 00:16:41;;;;;;;21.85;4.32;;;;;;;3.89;100.00;101540.41;5072044;28;20025;-76
2023/01/14 00:19:06;;;;;;;21.35;4.70;;;;;;;3.88;100.00;101530.91;5071192;28;20138;-77
2023/01/14 00:21:32;;;;;;;20.38;4.45;;;;;;;3.88;100.00;101533.50;5071675;28;20545;-77
2023/01/14 00:23:57;;;;;;;29.50;4.78;;;;;;;3.90;100.00;101531.81;5071155;28;20032;-77
2023/01/14 00:26:23;;;;;;;28.55;4.55;;;;;;;3.91;100.00;101527.53;5072238;28;20021;-77
2023/01/14 00:28:49;;;;;;;20.73;4.43;;;;;;;3.86;100.00;101526.56;5085125;28;20064;-77
2023/01/14 00:31:17;;;;;;;29.35;4.68;;;;;;;3.75;100.00;101509.22;5070744;28;20024;-77
2023/01/14 00:33:43;;;;;;;22.40;4.63;;;;;;;3.83;100.00;101524.84;5057781;28;20017;-77
2023/01/14 00:36:12;;;;;;;26.58;5.88;;;;;;;3.81;100.00;101516.19;5083075;28;20413;-77
2023/01/14 00:38:39;;;;;;;24.67;4.55;;;;;;;3.80;100.00;101513.59;5072830;28;20483;-76
2023/01/14 00:41:06;;;;;;;28.35;5.22;;;;;;;3.80;100.00;101514.47;5071544;28;20520;-77
2023/01/14 00:43:32;;;;;;;25.40;4.65;;;;;;;3.78;100.00;101508.41;5071167;28;20046;-77
2023/01/14 00:45:58;;;;;;;24.50;5.03;;;;;;;3.82;100.00;101517.91;5070906;28;20024;-77
2023/01/14 00:48:23;;;;;;;30.73;4.93;;;;;;;3.82;100.00;101523.06;5071006;28;20027;-77
2023/01/14 00:50:48;;;;;;;32.13;5.47;;;;;;;3.86;100.00;101531.72;5085932;28;20052;-77
2023/01/14 00:53:14;;;;;;;40.22;5.13;;;;;;;3.88;100.00;101530.91;5070320;28;20051;-77
2023/01/14 00:55:39;;;;;;;26.30;5.47;;;;;;;3.88;100.00;101527.47;5071427;28;20047;-76
2023/01/14 00:58:04;;;;;;;36.15;5.18;;;;;;;3.82;100.00;101517.91;5071474;28;20029;-77
2023/01/14 01:00:30;;;;;;;38.13;5.95;;;;;;;3.85;100.00;101527.44;5069732;28;20079;-77
2023/01/14 01:02:57;;;;;;;26.83;5.63;;;;;;;3.89;100.00;101527.50;5071620;28;20495;-77
2023/01/14 01:05:22;;;;;;;25.40;5.53;;;;;;;3.87;100.00;101521.44;5071258;28;20032;-77
2023/01/14 01:07:47;;;;;;;28.85;5.97;;;;;;;3.90;100.00;101531.81;5071342;28;20025;-77
2023/01/14 01:10:13;;;;;;;28.67;5.88;;;;;;;3.90;100.00;101542.13;5074886;28;20027;-77
2023/01/14 01:12:38;;;;;;;23.05;5.07;;;;;;;3.87;100.00;101538.66;5075113;28;20035;-77
2023/01/14 01:15:04;;;;;;;28.45;5.68;;;;;;;3.78;100.00;101531.63;5088530;28;20376;-77
2023/01/14 01:17:29;;;;;;;34.53;5.28;;;;;;;3.88;100.00;101542.94;5074590;28;20357;-77
2023/01/14 01:19:54;;;;;;;30.20;5.47;;;;;;;3.90;100.00;101536.13;5074610;28;20050;-77
2023/01/14 01:22:20;;;;;;;31.80;5.28;;;;;;;3.86;100.00;101527.47;5073503;28;20055;-77
2023/01/14 01:24:46;;;;;;;35.70;5.88;;;;;;;3.88;100.00;101532.63;5074908;28;20020;-77
2023/01/14 01:27:12;;;;;;;28.05;5.55;;;;;;;3.81;100.00;101526.50;5074215;28;20421;-76
2023/01/14 01:29:37;;;;;;;29.20;5.32;;;;;;;3.83;100.00;101532.56;5073764;28;20112;-77
2023/01/14 01:32:02;;;;;;;34.88;5.88;;;;;;;3.78;100.00;101525.59;5074623;28;20104;-77
2023/01/14 01:34:28;;;;;;;33.03;5.88;;;;;;;3.79;100.00;101524.75;5073732;28;20044;-77
2023/01/14 01:36:53;;;;;;;31.73;6.45;;;;;;;3.61;100.00;101482.38;5074282;28;20020;-77
2023/01/14 01:39:18;;;;;;;31.50;5.90;;;;;;;3.86;100.00;101524.00;5074213;28;20534;-77
2023/01/14 01:41:44;;;;;;;34.78;6.30;;;;;;;3.81;100.00;101520.50;5073753;28;20460;-77
2023/01/14 01:44:12;;;;;;;46.13;6.22;;;;;;;3.88;100.00;101536.06;5074322;28;20028;-77
2023/01/14 01:46:38;;;;;;;31.08;5.63;;;;;;;3.85;100.00;101523.13;5074283;28;20028;-76
2023/01/14 01:49:20;;;;;;;34.03;5.60;;;;;;;3.78;100.00;101525.59;5073164;28;20051;-77
2023/01/14 01:52:01;;;;;;;37.83;6.40;;;;;;;3.73;100.00;101522.97;5074579;28;20044;-77
2023/01/14 01:54:30;;;;;;;29.63;5.32;;;;;;;3.66;100.00;101516.84;5087881;28;20114;-77
2023/01/14 01:56:55;;;;;;;35.38;5.60;;;;;;;3.76;100.00;101533.34;5073542;28;20024;-76
2023/01/14 01:59:25;;;;;;;37.72;7.00;;;;;;;3.74;100.00;101533.28;5073723;28;20498;-77
2023/01/14 02:01:55;;;;;;;39.20;5.55;;;;;;;3.71;100.00;101525.50;5073933;28;20107;-77
2023/01/14 02:04:20;;;;;;;40.80;6.03;;;;;;;3.69;100.00;101526.31;5072989;28;20032;-77
2023/01/14 02:06:46;;;;;;;39.42;6.90;;;;;;;3.58;100.00;101513.25;5073983;28;20487;-77
2023/01/14 02:09:12;;;;;;;34.00;5.45;;;;;;;3.59;100.00;101498.66;5073723;28;20134;-77
2023/01/14 02:12:02;;;;;;;35.17;6.05;;;;;;;3.61;100.00;101510.75;5059239;28;20031;-77
2023/01/14 02:15:02;;;;;;;33.40;6.28;;;;;;;3.57;100.00;101503.81;5073633;28;20028;-77
2023/01/14 02:17:52;;;;;;;36.33;5.90;;;;;;;3.55;100.00;101482.28;5084880;28;20024;-77
2023/01/14 02:20:26;;;;;;;35.17;5.70;;;;;;;3.55;100.00;101484.84;5059236;28;20361;-76
2023/01/14 02:23:00;;;;;;;38.85;5.47;;;;;;;3.50;100.00;101481.34;5073456;28;20050;-77
2023/01/14 02:25:44;;;;;;;42.00;6.68;;;;;;;3.43;100.00;101470.09;5072705;28;20048;-77
2023/01/14 02:28:28;;;;;;;43.50;5.97;;;;;;;3.41;100.00;101465.75;5072983;28;20068;-77
2023/01/14 02:30:59;;;;;;;;;;;;;;;3.39;100.00;101459.69;5073255;28;20021;-77
2023/01/14 02:33:37;;;;;;;28.65;6.35;;;;;;;3.26;100.00;101438.84;5073017;28;20360;-77
2023/01/14 02:36:08;;;;;;;34.28;5.90;;;;;;;3.36;100.00;101445.03;5073462;28;20025;-77
2023/01/14 02:38:44;;;;;;;37.33;5.75;;;;;;;3.40;100.00;101438.19;5072652;28;20025;-77
2023/01/14 02:44:06;;;;;;;33.60;5.63;;;;;;;3.42;100.00;101434.81;5072783;28;20021;-77
2023/01/14 02:44:13;;;;;;;42.95;6.40;;;;;;;3.44;100.00;101421.97;5072830;28;20041;-77
2023/01/14 02:47:10;;;;;;;32.17;5.90;;;;;;;3.43;100.00;101421.09;5072523;28;20028;-77
2023/01/14 02:49:39;;;;;;;44.40;6.32;;;;;;;3.40;100.00;101408.16;5044770;28;20040;-77
2023/01/14 02:52:06;;;;;;;32.53;5.30;;;;;;;3.47;100.00;101419.44;5072290;28;20456;-77
2023/01/14 02:54:32;;;;;;;33.25;5.22;;;;;;;3.54;100.00;101423.84;5072248;28;20103;-77
2023/01/14 02:57:06;;;;;;;38.03;5.38;;;;;;;3.56;100.00;101410.94;5072997;28;20060;-77
2023/01/14 02:59:47;;;;;;;34.13;5.93;;;;;;;3.55;100.00;101415.25;5068579;28;20028;-77
2023/01/14 03:02:46;;;;;;;39.67;5.60;;;;;;;3.61;100.00;101417.06;5064516;28;20023;-77
2023/01/14 03:05:39;;;;;;;33.00;5.70;;;;;;;3.65;100.00;101418.81;5072682;28;20024;-77
2023/01/14 03:08:15;;;;;;;29.60;4.72;;;;;;;3.65;100.00;101416.25;5071981;28;20032;-77
2023/01/14 03:10:47;;;;;;;36.95;6.38;;;;;;;3.67;100.00;101412.00;5072595;28;20025;-77
2023/01/14 03:14:01;;;;;;;32.72;4.97;;;;;;;3.59;100.00;101386.06;5071504;28;20023;-77
2023/01/14 03:16:38;;;;;;;36.38;5.65;;;;;;;3.66;100.00;101393.06;5010373;28;20068;-77
2023/01/14 03:19:11;;;;;;;32.97;4.82;;;;;;;3.63;100.00;101381.81;5058053;28;20499;-77
2023/01/14 03:21:43;;;;;;;32.63;5.43;;;;;;;3.68;100.00;101380.19;5071927;28;20021;-76
2023/01/14 03:24:19;;;;;;;34.88;4.45;;;;;;;3.72;100.00;101374.22;5072323;28;20028;-76
2023/01/14 03:26:48;;;;;;;39.13;5.88;;;;;;;3.79;100.00;101376.03;5072594;28;20020;-77
2023/01/14 03:29:20;;;;;;;28.60;4.85;;;;;;;3.84;100.00;101374.38;5069807;28;20031;-77
2023/01/14 03:31:54;;;;;;;34.65;5.93;;;;;;;3.82;100.00;101370.91;5072298;28;20025;-77
2023/01/14 03:34:26;;;;;;;30.27;4.85;;;;;;;3.84;100.00;101360.63;5070968;28;20353;-76
2023/01/14 03:36:56;;;;;;;33.08;5.32;;;;;;;3.95;100.00;101366.75;5058397;28;20115;-77
2023/01/14 03:39:23;;;;;;;35.47;4.78;;;;;;;3.95;100.00;101370.19;5077181;28;20047;-77
2023/01/14 03:45:08;;;;;;;30.73;4.90;;;;;;;4.12;100.00;101379.84;5072579;28;20018;-77
2023/01/14 03:47:35;;;;;;;27.92;5.03;;;;;;;4.15;100.00;101372.16;5072128;28;20028;-77
2023/01/14 03:50:05;;;;;;;28.35;5.18;;;;;;;4.17;100.00;101370.47;5080279;28;20387;-77
2023/01/14 03:53:00;;;;;;;32.53;4.97;;;;;;;4.20;100.00;101370.50;5076539;28;20078;-77
2023/01/14 03:55:46;;;;;;;28.50;5.00;;;;;;;4.22;100.00;101351.63;5039712;28;20047;-77
2023/01/14 03:58:44;;;;;;;24.65;4.90;;;;;;;4.27;100.00;101349.06;5058017;28;20020;-77
2023/01/14 04:01:26;;;;;;;22.48;4.53;;;;;;;4.29;100.00;101347.38;5053896;28;20037;-77
2023/01/14 04:03:53;;;;;;;33.53;4.07;;;;;;;4.29;100.00;101343.94;5071594;28;20048;-77
2023/01/14 04:06:19;;;;;;;30.05;5.30;;;;;;;4.23;100.00;101337.84;5071424;28;20031;-77
2023/01/14 04:08:45;;;;;;;32.17;5.38;;;;;;;4.20;100.00;101329.22;5072149;28;20020;-78
2023/01/14 04:11:10;;;;;;;31.42;5.03;;;;;;;4.24;100.00;101328.38;5070942;28;20415;-77
2023/01/14 04:16:20;;;;;;;;;;;;;;;4.23;100.00;101311.19;5071388;28;20043;-77
2023/01/14 04:18:45;;;;;;;25.25;4.28;;;;;;;4.14;100.00;101299.03;5072222;28;19916;-77
2023/01/14 04:21:10;;;;;;;26.23;4.90;;;;;;;4.11;100.00;101293.84;5071740;28;20024;-77
2023/01/14 04:23:35;;;;;;;26.88;4.57;;;;;;;4.15;100.00;101298.22;5070939;28;20527;-77
2023/01/14 04:26:01;;;;;;;27.15;4.53;;;;;;;4.15;100.00;101298.22;5071992;28;20028;-77
2023/01/14 04:28:27;;;;;;;22.58;4.72;;;;;;;4.08;100.00;101283.50;5071224;28;20565;-77
2023/01/14 04:30:53;;;;;;;31.17;5.18;;;;;;;4.06;100.00;101269.72;5071404;28;20032;-77
2023/01/14 04:33:19;;;;;;;32.05;4.72;;;;;;;4.08;100.00;101282.63;5071520;28;20013;-77
2023/01/14 04:35:46;;;;;;;21.40;4.35;;;;;;;4.03;100.00;101280.00;5071968;28;20032;-77
2023/01/14 04:38:11;;;;;;;35.35;5.25;;;;;;;3.94;100.00;101264.44;5070708;28;20549;-77
2023/01/14 04:40:36;;;;;;;26.95;4.97;;;;;;;3.95;100.00;101273.91;5071809;28;20020;-77
2023/01/14 04:43:02;;;;;;;31.92;4.55;;;;;;;3.86;100.00;101264.38;5073044;28;20456;-77
2023/01/14 04:45:27;;;;;;;29.45;5.15;;;;;;;3.89;100.00;101273.81;5074379;28;20025;-77
2023/01/14 04:47:52;;;;;;;34.13;4.55;;;;;;;3.79;100.00;101256.53;5075618;28;20353;-77
2023/01/14 04:50:41;;;;;;;34.00;5.30;;;;;;;3.86;100.00;101269.53;5074880;28;20028;-77
2023/01/14 04:53:15;;;;;;;26.20;4.30;;;;;;;3.86;100.00;101272.09;5063375;28;20044;-77
2023/01/14 04:55:42;;;;;;;29.67;5.00;;;;;;;3.91;100.00;101264.41;5075386;28;20488;-76
2023/01/14 04:58:09;;;;;;;32.13;5.55;;;;;;;3.89;100.00;101250.59;5075173;28;20032;-77
2023/01/14 05:00:35;;;;;;;31.55;4.72;;;;;;;3.97;100.00;101249.84;5064444;28;20061;-77
2023/01/14 05:03:03;;;;;;;25.67;4.00;;;;;;;3.97;100.00;101249.00;5075263;28;20044;-77
2023/01/14 05:05:28;;;;;;;25.77;4.97;;;;;;;4.02;100.00;101247.31;5073947;28;20891;-77
2023/01/14 05:07:53;;;;;;;25.45;4.63;;;;;;;4.03;100.00;101235.28;5075019;28;20016;-77
2023/01/14 05:10:19;;;;;;;21.33;4.13;;;;;;;3.99;100.00;101222.38;5074822;28;20025;-76
2023/01/14 05:12:55;;;;;;;25.63;4.20;;;;;;;4.04;100.00;101218.97;5074454;28;20109;-77
2023/01/14 05:15:40;;;;;;;28.30;4.68;;;;;;;4.11;100.00;101220.72;5074485;28;20029;-77
2023/01/14 05:18:08;;;;;;;26.45;4.18;;;;;;;4.11;100.00;101226.75;5074698;28;20478;-77
2023/01/14 05:20:33;;;;;;;22.08;5.13;;;;;;;4.15;100.00;101212.16;5074207;28;20025;-77
2023/01/14 05:23:01;;;;;;;26.40;4.35;;;;;;;4.05;100.00;101181.97;5074926;28;20031;-77
2023/01/14 05:25:27;;;;;;;24.83;3.83;;;;;;;4.12;100.00;101186.34;5074430;28;20538;-77
2023/01/14 05:27:53;;;;;;;26.92;4.82;;;;;;;4.17;100.00;101187.25;5074924;28;20078;-77
2023/01/14 05:30:18;;;;;;;29.00;4.93;;;;;;;4.24;100.00;101186.44;5087769;28;20055;-77
2023/01/14 05:32:43;;;;;;;19.67;4.00;;;;;;;4.31;100.00;101180.47;5074603;28;20109;-77
2023/01/14 05:35:09;;;;;;;22.75;4.75;;;;;;;4.35;100.00;101164.16;5073421;28;20023;-77
2023/01/14 05:37:34;;;;;;;21.27;4.40;;;;;;;4.33;100.00;101145.22;5074788;28;20066;-77
2023/01/14 05:40:01;;;;;;;22.92;3.83;;;;;;;4.41;100.00;101150.41;5074658;28;20024;-77
2023/01/14 05:47:55;;;;;;;19.42;3.70;;;;;;;4.51;100.00;101128.09;5073856;28;19937;-77
2023/01/14 05:50:22;;;;;;;20.23;4.25;;;;;;;4.53;100.00;101122.09;5074161;28;20107;-77
2023/01/14 05:52:47;;;;;;;18.45;3.80;;;;;;;4.57;100.00;101120.41;5074057;28;20468;-77
2023/01/14 05:55:13;;;;;;;25.50;3.75;;;;;;;4.52;100.00;101101.47;5072813;28;20023;-77
2023/01/14 05:57:38;;;;;;;22.33;4.10;;;;;;;4.58;100.00;101104.94;5074269;28;20028;-76
2023/01/14 06:00:04;;;;;;;21.88;4.20;;;;;;;4.53;100.00;101087.69;5069133;28;20035;-77
2023/01/14 06:08:00;;;;;;;;;;;;;;;4.70;100.00;101088.63;5074333;28;20392;-76
2023/01/14 06:10:26;;;;;;;19.80;4.00;;;;;;;4.71;100.00;101072.28;5073021;28;19958;-77
2023/01/14 06:12:58;;;;;;;19.92;4.10;;;;;;;4.74;100.00;101074.88;5073860;28;20028;-77
2023/01/14 06:15:25;;;;;;;23.48;4.53;;;;;;;4.69;100.00;101061.94;5073554;28;20021;-77
2023/01/14 06:17:58;;;;;;;28.42;4.65;;;;;;;4.60;100.00;101043.81;5072791;28;20107;-77
2023/01/14 06:20:24;;;;;;;14.73;2.85;;;;;;;4.61;100.00;101055.00;5073610;28;20028;-77
2023/01/14 06:22:54;;;;;;;21.73;3.70;;;;;;;4.57;100.00;101041.22;5072924;28;20024;-77
2023/01/14 06:25:19;;;;;;;23.67;4.80;;;;;;;4.65;100.00;101052.47;5073222;28;20024;-77
2023/01/14 06:27:44;;;;;;;18.73;3.28;;;;;;;4.62;100.00;101043.84;5073564;28;20020;-77
2023/01/14 06:30:10;;;;;;;24.05;5.15;;;;;;;4.59;100.00;101031.75;5072291;28;20052;-77
2023/01/14 06:32:35;;;;;;;25.70;4.13;;;;;;;4.60;100.00;101030.03;5073472;28;20070;-77
2023/01/14 06:35:01;;;;;;;27.27;3.95;;;;;;;4.57;100.00;101017.97;5073142;28;20021;-77
2023/01/14 06:37:26;;;;;;;21.58;4.18;;;;;;;4.55;100.00;101011.09;5072465;28;20024;-77
2023/01/14 06:39:51;;;;;;;29.33;4.03;;;;;;;4.53;100.00;101003.34;5073633;28;20047;-77
2023/01/14 06:42:17;;;;;;;18.42;3.65;;;;;;;4.53;100.00;100987.84;5072765;28;20017;-77
2023/01/14 06:44:42;;;;;;;25.52;3.55;;;;;;;4.54;100.00;100984.41;5072392;28;20062;-77
2023/01/14 06:47:07;;;;;;;22.65;4.97;;;;;;;4.61;100.00;100986.16;5072796;28;20025;-77
2023/01/14 06:49:33;;;;;;;24.80;4.85;;;;;;;4.65;100.00;100987.03;5073042;28;20033;-77
2023/01/14 06:51:58;;;;;;;23.05;4.53;;;;;;;4.64;100.00;100970.69;5072541;28;20025;-76
2023/01/14 06:54:23;;;;;;;23.98;4.90;;;;;;;4.64;100.00;100969.78;5072318;28;20048;-77
2023/01/14 06:56:48;;;;;;;24.50;4.30;;;;;;;4.65;100.00;100958.63;5072955;28;20021;-76
2023/01/14 06:59:14;;;;;;;19.70;3.78;;;;;;;4.71;100.00;100966.41;5071696;28;20021;-76
2023/01/14 07:01:39;;;;;;;21.08;3.10;;;;;;;4.68;100.00;100950.91;5064462;28;20020;-77
2023/01/14 07:04:04;;;;;;;22.75;3.83;;;;;;;4.70;100.00;100951.75;5072883;28;20566;-77
2023/01/14 07:06:30;;;;;;;24.52;4.00;;;;;;;4.75;100.00;100949.19;5071577;28;20022;-77
2023/01/14 07:08:55;;;;;;;23.85;4.53;;;;;;;4.71;100.00;100930.25;5072728;28;20029;-77
2023/01/14 07:11:20;;;;;;;22.73;4.22;;;;;;;4.77;100.00;100926.78;5072013;28;20411;-77
2023/01/14 07:13:46;;;;;;;26.73;3.97;;;;;;;4.79;100.00;100919.91;5072175;28;20155;-77
2023/01/14 07:16:11;;;;;;;26.45;4.18;;;;;;;4.78;100.00;100923.38;5072324;28;20024;-77
2023/01/14 07:18:36;;;;;;;22.13;3.70;;;;;;;4.68;100.00;100888.91;5072538;28;20025;-77
2023/01/14 07:21:01;;;;;;;27.60;4.50;;;;;;;4.65;100.00;100870.84;5071556;28;20082;-77
2023/01/14 07:23:27;;;;;;;23.50;4.68;;;;;;;4.81;100.00;100890.66;5072417;28;20085;-76
2023/01/14 07:25:55;;;;;;;30.48;4.18;;;;;;;4.75;100.00;100875.13;5072628;28;20463;-77
2023/01/14 07:28:25;;;;;;;16.88;4.07;;;;;;;4.83;100.00;100882.88;5071608;28;20020;-77
2023/01/14 07:30:51;;;;;;;21.02;4.35;;;;;;;4.74;100.00;100859.63;5072675;28;20020;-77
2023/01/14 07:33:16;;;;;;;14.50;3.78;;;;;;;4.89;100.00;100878.59;5071445;28;20817;-77
2023/01/14 07:35:43;;;;;;;12.32;3.40;;;;;;;4.81;100.00;100854.50;5072384;28;20078;-77
2023/01/14 07:38:08;;;;;;;18.77;3.58;;;;;;;4.92;100.00;100870.84;5072071;28;20107;-77
2023/01/14 07:40:33;;;;;;;17.52;4.43;;;;;;;4.92;100.00;100867.41;5071719;28;20096;-77
2023/01/14 07:43:00;;;;;;;17.55;4.10;;;;;;;4.90;100.00;100846.75;5072301;28;20426;-77
2023/01/14 07:45:26;;;;;;;20.55;4.38;;;;;;;4.93;100.00;100835.53;5071635;28;20043;-77
2023/01/14 07:47:52;;;;;;;23.02;4.82;;;;;;;4.90;100.00;100822.59;5071502;28;20035;-77
2023/01/14 07:50:18;;;;;;;15.77;4.20;;;;;;;4.98;100.00;100818.31;5071924;28;20021;-77
2023/01/14 07:52:51;;;;;;;22.27;4.68;;;;;;;4.98;100.00;100814.88;5086016;28;20419;-78
2023/01/14 07:55:16;;;;;;;15.75;3.90;;;;;;;5.03;100.00;100802.78;5071089;28;20468;-77
2023/01/14 07:57:42;;;;;;;21.67;4.38;;;;;;;4.92;100.00;100779.56;5072229;28;20024;-77
2023/01/14 08:00:07;;;;;;;16.38;4.07;;;;;;;4.98;100.00;100781.28;5067944;28;20094;-77
2023/01/14 08:02:34;;;;;;;14.70;4.65;;;;;;;5.04;100.00;100770.94;5067678;28;20029;-77
2023/01/14 08:04:59;;;;;;;17.45;4.55;;;;;;;5.03;100.00;100762.31;5072247;28;20055;-78
2023/01/14 08:07:24;;;;;;;18.13;4.40;;;;;;;5.05;100.00;100745.09;5071511;28;20403;-78
2023/01/14 08:09:50;;;;;;;18.88;4.38;;;;;;;5.08;100.00;100745.09;5070864;28;20055;-77
2023/01/14 08:12:17;;;;;;;16.17;4.35;;;;;;;5.12;100.00;100743.34;5071594;28;20021;-77
2023/01/14 08:14:42;;;;;;;21.05;4.65;;;;;;;5.12;100.00;100717.50;5072094;28;20042;-77
2023/01/14 08:17:07;;;;;;;16.85;4.32;;;;;;;5.08;100.00;100705.47;5070961;28;20130;-77
2023/01/14 08:19:33;;;;;;;17.80;4.75;;;;;;;5.17;100.00;100713.19;5075898;28;20032;-77
2023/01/14 08:21:58;;;;;;;12.63;4.70;;;;;;;5.21;100.00;100696.81;5076178;28;20025;-77
2023/01/14 08:24:24;;;;;;;13.95;3.92;;;;;;;5.16;100.00;100680.44;5074666;28;20021;-77
2023/01/14 08:26:49;;;;;;;16.90;3.78;;;;;;;5.27;100.00;100701.94;5075944;28;20107;-77
2023/01/14 08:29:17;;;;;;;15.98;3.90;;;;;;;5.25;100.00;100682.13;5074820;28;20060;-77
2023/01/14 08:31:43;;;;;;;13.27;4.13;;;;;;;5.27;100.00;100673.53;5075861;28;20031;-77
2023/01/14 08:34:08;;;;;;;8.95;3.03;;;;;;;5.35;100.00;100671.75;5075561;28;20107;-77
2023/01/14 08:36:34;;;;;;;9.82;3.67;;;;;;;5.39;100.00;100654.50;5074661;28;20135;-77
2023/01/14 08:38:59;;;;;;;10.27;3.25;;;;;;;5.44;100.00;100651.91;5075586;28;20028;-77
2023/01/14 08:41:25;;;;;;;10.85;3.13;;;;;;;5.41;100.00;100642.41;5075217;28;20020;-77
2023/01/14 08:43:51;;;;;;;6.40;2.72;;;;;;;5.47;100.00;100655.31;5074493;28;20032;-77
2023/01/14 08:46:17;;;;;;;10.10;3.38;;;;;;;5.42;100.00;100631.19;5075264;28;20025;-77
2023/01/14 08:48:43;;;;;;;9.07;3.40;;;;;;;5.38;100.00;100619.16;5075276;28;20020;-76
2023/01/14 08:51:11;;;;;;;11.52;3.05;;;;;;;5.52;100.00;100617.34;5074534;28;20027;-76
2023/01/14 08:53:37;;;;;;;8.25;2.97;;;;;;;5.54;100.00;100622.53;5075325;28;20037;-76
2023/01/14 08:56:05;;;;;;;9.27;2.95;;;;;;;5.57;100.00;100609.59;5075013;28;20072;-77
2023/01/14 08:58:32;;;;;;;14.85;3.40;;;;;;;5.59;100.00;100592.31;5074300;28;20383;-77
2023/01/14 09:01:03;;;;;;;10.63;3.03;;;;;;;5.57;100.00;100578.56;5074853;28;20384;-77
2023/01/14 09:03:30;;;;;;;7.13;2.28;;;;;;;5.45;100.00;100552.78;5075045;28;20358;-77
2023/01/14 09:06:00;;;;;;;8.35;2.90;;;;;;;5.59;100.00;100575.09;5074100;28;20020;-77
2023/01/14 09:19:24;;;;;;;10.95;3.00;;;;;;;5.71;100.00;100540.50;5073776;28;19922;-77
2023/01/14 09:21:49;;;;;;;8.73;2.80;;;;;;;5.71;100.00;100530.16;5074965;28;20111;-77
2023/01/14 09:24:14;;;;;;;14.23;3.40;;;;;;;5.78;100.00;100526.63;5074516;28;20098;-77
2023/01/14 09:26:39;;;;;;;10.27;3.08;;;;;;;5.81;100.00;100526.59;5073967;28;20119;-77
2023/01/14 09:29:05;;;;;;;15.25;3.50;;;;;;;5.82;100.00;100530.03;5074340;28;20033;-77
2023/01/14 09:31:30;;;;;;;7.57;3.10;;;;;;;5.86;100.00;100506.75;5074431;28;20460;-77
2023/01/14 09:33:55;;;;;;;10.73;2.95;;;;;;;5.87;100.00;100490.34;5074134;28;20025;-77
2023/01/14 09:36:21;;;;;;;8.55;3.90;;;;;;;5.86;100.00;100485.19;5074253;28;20056;-78
2023/01/14 09:38:46;;;;;;;14.55;4.22;;;;;;;5.95;100.00;100484.25;5074487;28;20458;-77
2023/01/14 09:41:23;;;;;;;12.90;3.38;;;;;;;5.94;100.00;100477.38;5073471;28;20021;-77
2023/01/14 09:43:49;;;;;;;16.40;3.70;;;;;;;5.93;100.00;100466.16;5074328;28;20029;-77
2023/01/14 09:46:14;;;;;;;12.35;3.30;;;;;;;5.96;100.00;100458.38;5073946;28;20539;-78
2023/01/14 09:48:40;;;;;;;11.65;3.40;;;;;;;6.00;100.00;100457.47;5073381;28;20459;-77
2023/01/14 09:51:23;;;;;;;12.55;3.10;;;;;;;6.09;100.00;100448.75;5074505;28;20025;-77
2023/01/14 09:54:17;;;;;;;14.27;2.50;;;;;;;6.16;100.00;100454.72;5073410;28;20040;-76
2023/01/14 09:56:51;;;;;;;;;;;;;;;6.14;100.00;100456.44;5074588;28;20353;-77
2023/01/14 09:59:22;;;;;;;14.57;2.60;;;;;;;6.17;100.00;100444.31;5073843;28;19916;-77
2023/01/14 10:01:53;;;;;;;10.60;3.17;;;;;;;6.10;100.00;100427.16;5067643;28;20027;-77
2023/01/14 10:04:37;;;;;;;13.30;3.72;;;;;;;6.22;100.00;100434.78;5073792;28;20376;-77
2023/01/14 10:07:03;;;;;;;10.13;2.95;;;;;;;6.24;100.00;100406.28;5073912;28;20025;-77
2023/01/14 10:09:54;;;;;;;11.80;3.08;;;;;;;6.29;100.00;100396.75;5072545;28;20461;-77
2023/01/14 10:12:25;;;;;;;14.35;3.60;;;;;;;6.31;100.00;100403.63;5073533;28;20753;-77
2023/01/14 10:15:06;;;;;;;18.13;3.63;;;;;;;6.36;100.00;100381.97;5073094;28;20028;-77
2023/01/14 10:17:40;;;;;;;16.20;3.42;;;;;;;6.40;100.00;100386.22;5073602;28;20027;-77
2023/01/14 10:20:20;;;;;;;13.55;3.55;;;;;;;6.45;100.00;100366.31;5073878;28;20074;-77
2023/01/14 10:22:56;;;;;;;13.70;3.35;;;;;;;6.41;100.00;100343.91;5072851;28;20028;-77
2023/01/14 10:25:22;;;;;;;13.88;3.65;;;;;;;6.44;100.00;100339.59;5073309;28;20017;-77
2023/01/14 10:27:52;;;;;;;10.40;3.30;;;;;;;6.47;100.00;100325.72;5073502;28;20032;-78
2023/01/14 10:30:18;;;;;;;14.80;3.78;;;;;;;6.59;100.00;100330.72;5072800;28;20120;-77
2023/01/14 10:32:44;;;;;;;10.80;3.50;;;;;;;6.58;100.00;100318.66;5073584;28;20480;-77
2023/01/14 10:35:14;;;;;;;13.60;3.65;;;;;;;6.66;100.00;100315.94;5072946;28;20017;-77
2023/01/14 10:37:39;;;;;;;8.57;3.17;;;;;;;6.65;100.00;100301.28;5072663;28;20103;-77
2023/01/14 10:40:11;;;;;;;10.18;3.70;;;;;;;6.69;100.00;100311.56;5072991;28;20096;-77
2023/01/14 10:42:37;;;;;;;17.42;3.55;;;;;;;6.77;100.00;100301.09;5073039;28;20559;-77
2023/01/14 10:45:04;;;;;;;10.82;3.92;;;;;;;6.76;100.00;100300.19;5072599;28;20094;-77
2023/01/14 10:47:30;;;;;;;10.38;2.95;;;;;;;6.80;100.00;100288.06;5072660;28;20035;-77
2023/01/14 10:50:00;;;;;;;12.02;2.88;;;;;;;6.77;100.00;100280.38;5072700;28;20024;-77
2023/01/14 10:52:34;;;;;;;8.38;2.85;;;;;;;6.86;100.00;100281.91;5072754;28;20032;-77
2023/01/14 10:55:16;;;;;;;9.05;3.08;;;;;;;6.83;100.00;100250.88;5072657;28;20068;-77
2023/01/14 10:57:47;;;;;;;14.13;2.70;;;;;;;6.93;100.00;100255.91;5072334;28;20017;-77
2023/01/14 11:00:46;;;;;;;10.10;3.60;;;;;;;6.98;100.00;100245.44;5070219;28;20049;-77
2023/01/14 11:03:25;;;;;;;10.40;2.90;;;;;;;6.83;100.00;100204.25;5060133;28;20064;-77
2023/01/14 11:05:59;;;;;;;7.72;2.25;;;;;;;7.03;100.00;100228.91;5071968;28;20495;-77
2023/01/14 11:08:35;;;;;;;6.60;2.53;;;;;;;7.10;100.00;100229.66;5072382;28;20028;-77
2023/01/14 11:11:03;;;;;;;5.95;2.65;;;;;;;7.07;100.00;100218.50;5072140;28;20028;-77
2023/01/14 11:13:41;;;;;;;6.15;2.38;;;;;;;7.16;100.00;100205.34;5072405;28;20019;-76
2023/01/14 11:16:27;;;;;;;11.98;2.50;;;;;;;6.95;100.00;100175.50;5072368;28;20024;-77
2023/01/14 11:19:00;;;;;;;5.60;2.40;;;;;;;7.14;100.00;100183.78;5072180;28;20021;-76
2023/01/14 11:21:27;;;;;;;6.80;2.33;;;;;;;7.11;100.00;100189.88;5072207;28;20022;-77
2023/01/14 11:24:19;;;;;;;7.78;2.67;;;;;;;7.11;100.00;100174.34;5072765;28;20016;-77
2023/01/14 11:26:45;;;;;;;6.35;2.38;;;;;;;7.22;100.00;100174.97;5071909;28;20025;-77
2023/01/14 11:29:23;;;;;;;5.53;2.13;;;;;;;7.26;100.00;100166.25;5072232;28;20081;-77
2023/01/14 11:31:52;;;;;;;6.65;2.22;;;;;;;7.19;100.00;100162.09;5072539;28;20107;-77
2023/01/14 11:34:32;;;;;;;5.05;2.17;;;;;;;7.26;100.00;100173.19;5071191;28;20357;-76
2023/01/14 11:37:22;;;;;;;8.50;2.50;;;;;;;7.20;100.00;100147.38;5072422;28;20063;-77
2023/01/14 11:39:51;;;;;;;9.05;2.45;;;;;;;7.26;100.00;100161.06;5057430;28;20119;-77
2023/01/14 11:42:38;;;;;;;5.72;2.30;;;;;;;7.32;100.00;100151.44;5072005;28;20082;-77
2023/01/14 11:45:16;;;;;;;4.35;2.05;;;;;;;7.33;100.00;100145.38;5072460;28;20059;-77
2023/01/14 11:47:55;;;;;;;4.47;2.08;;;;;;;7.34;100.00;100141.91;5071491;28;20456;-77
2023/01/14 11:50:30;;;;;;;4.57;2.10;;;;;;;7.35;100.00;100130.63;5072031;28;20035;-76
2023/01/14 11:53:20;;;;;;;5.13;2.30;;;;;;;7.35;100.00;100130.63;5059099;28;20020;-76
2023/01/14 11:55:49;;;;;;;5.40;2.10;;;;;;;7.30;100.00;100122.13;5072331;28;20025;-77
2023/01/14 11:58:14;;;;;;;6.38;2.00;;;;;;;7.35;100.00;100110.75;5071744;28;20384;-77
2023/01/14 12:00:44;;;;;;;6.07;2.00;;;;;;;7.40;100.00;100118.44;5067287;28;20032;-76